createdAt,value
2019-03-01T00:00:08.284Z,7.65
2019-03-01T00:03:04.791Z,6.90
2019-03-01T00:06:25.402Z,8.03
2019-03-01T00:09:40.566Z,8.15
2019-03-01T00:12:56.984Z,8.73
2019-03-01T00:16:31.808Z,8.33
2019-03-01T00:20:20.131Z,7.58
2019-03-01T00:23:59.743Z,8.03
2019-03-01T00:27:45.938Z,8.00
2019-03-01T00:31:24.653Z,7.72
2019-03-01T00:34:58.358Z,8.30
2019-03-01T00:38:22.821Z,8.70
2019-03-01T00:42:02.811Z,9.90
2019-03-01T00:44:57.664Z,9.20
2019-03-01T00:47:53.444Z,8.80
2019-03-01T00:50:48.772Z,8.35
2019-03-01T00:53:44.782Z,9.55
2019-03-01T00:56:39.411Z,11.08
2019-03-01T00:59:34.986Z,10.43
2019-03-01T01:02:30.020Z,11.30
2019-03-01T01:05:24.705Z,10.25
2019-03-01T01:08:19.063Z,10.75
2019-03-01T01:11:15.406Z,10.80
2019-03-01T01:14:09.767Z,13.55
2019-03-01T01:17:05.045Z,13.03
2019-03-01T01:19:59.746Z,13.25
2019-03-01T01:22:54.526Z,12.90
2019-03-01T01:25:49.246Z,13.95
2019-03-01T01:28:44.521Z,12.10
2019-03-01T01:31:39.655Z,19.62
2019-03-01T01:34:34.937Z,14.40
2019-03-01T01:37:29.663Z,12.60
2019-03-01T01:40:24.754Z,11.93
2019-03-01T01:43:20.291Z,13.22
2019-03-01T01:46:15.139Z,14.00
2019-03-01T01:49:10.134Z,14.43
2019-03-01T01:52:04.714Z,13.32
2019-03-01T01:54:59.707Z,12.60
2019-03-01T01:57:54.862Z,11.78
2019-03-01T02:00:49.939Z,12.98
2019-03-01T02:03:45.203Z,12.98
2019-03-01T02:06:39.715Z,13.62
2019-03-01T02:09:34.792Z,13.83
2019-03-01T02:12:29.537Z,14.63
2019-03-01T02:15:24.417Z,15.48
2019-03-01T02:18:18.996Z,15.43
2019-03-01T02:21:14.183Z,16.20
2019-03-01T02:24:09.101Z,16.05
2019-03-01T02:27:27.553Z,15.18
2019-03-01T02:30:24.578Z,14.30
2019-03-01T02:33:19.378Z,15.35
2019-03-01T02:36:14.397Z,14.68
2019-03-01T02:39:10.114Z,16.50
2019-03-01T02:42:04.943Z,15.65
2019-03-01T02:44:59.813Z,15.83
2019-03-01T02:47:55.289Z,14.98
2019-03-01T02:50:49.949Z,15.08
2019-03-01T02:53:45.351Z,15.63
2019-03-01T02:56:40.605Z,14.20
2019-03-01T02:59:35.585Z,13.15
2019-03-01T03:02:34.160Z,12.73
2019-03-01T03:05:32.772Z,12.45
2019-03-01T03:09:10.711Z,12.53
2019-03-01T03:12:26.403Z,12.50
2019-03-01T03:15:24.695Z,12.33
2019-03-01T03:18:19.982Z,11.90
2019-03-01T03:21:15.336Z,11.57
2019-03-01T03:24:10.154Z,11.73
2019-03-01T03:27:05.179Z,11.63
2019-03-01T03:29:59.829Z,14.23
2019-03-01T03:32:54.492Z,11.45
2019-03-01T03:35:49.533Z,12.73
2019-03-01T03:38:44.493Z,15.00
2019-03-01T03:41:39.437Z,14.03
2019-03-01T03:44:34.320Z,13.95
2019-03-01T03:47:30.953Z,12.05
2019-03-01T03:50:26.674Z,11.28
2019-03-01T03:53:21.364Z,14.50
2019-03-01T03:56:18.043Z,12.25
2019-03-01T03:59:13.126Z,17.27
2019-03-01T04:02:08.306Z,13.10
2019-03-01T04:05:03.000Z,17.17
2019-03-01T04:07:57.713Z,13.53
2019-03-01T04:10:53.580Z,10.28
2019-03-01T04:13:48.133Z,11.00
2019-03-01T04:16:43.185Z,11.95
2019-03-01T04:19:38.115Z,11.97
2019-03-01T04:22:33.285Z,11.45
2019-03-01T04:25:30.133Z,12.10
2019-03-01T04:28:25.145Z,11.48
2019-03-01T04:31:20.518Z,10.53
2019-03-01T04:34:20.335Z,13.98
2019-03-01T04:37:20.403Z,12.45
2019-03-01T04:40:18.703Z,11.33
2019-03-01T04:43:18.798Z,10.53
2019-03-01T04:46:19.386Z,11.45
2019-03-01T04:49:18.826Z,12.18
2019-03-01T04:52:32.301Z,12.07
2019-03-01T04:55:29.407Z,11.68
2019-03-01T04:58:24.717Z,13.65
2019-03-01T05:01:21.431Z,11.88
2019-03-01T05:04:16.938Z,12.23
2019-03-01T05:07:12.332Z,12.00
2019-03-01T05:10:08.383Z,12.75
2019-03-01T05:13:04.807Z,12.85
2019-03-01T05:15:59.851Z,13.30
2019-03-01T05:18:55.424Z,14.93
2019-03-01T05:21:50.772Z,14.20
2019-03-01T05:24:48.036Z,13.53
2019-03-01T05:27:44.270Z,12.75
2019-03-01T05:30:44.329Z,13.50
2019-03-01T05:34:11.413Z,14.00
2019-03-01T05:37:17.934Z,13.93
2019-03-01T05:40:41.648Z,13.70
2019-03-01T05:43:57.129Z,13.38
2019-03-01T05:47:15.090Z,13.25
2019-03-01T05:50:29.467Z,14.35
2019-03-01T05:54:08.702Z,15.55
2019-03-01T05:57:09.066Z,16.23
2019-03-01T06:00:39.051Z,14.78
2019-03-01T06:04:06.020Z,15.15
2019-03-01T06:07:35.591Z,14.75
2019-03-01T06:11:08.273Z,15.23
2019-03-01T06:14:39.667Z,15.98
2019-03-01T06:18:24.521Z,15.32
2019-03-01T06:22:01.162Z,15.38
2019-03-01T06:25:31.975Z,15.00
2019-03-01T06:29:02.185Z,15.32
2019-03-01T06:32:51.567Z,17.07
2019-03-01T06:36:12.550Z,15.45
2019-03-01T06:39:54.417Z,16.15
2019-03-01T06:43:02.297Z,16.23
2019-03-01T06:46:43.282Z,15.93
2019-03-01T06:50:15.379Z,15.48
2019-03-01T06:53:11.964Z,16.10
2019-03-01T06:56:09.111Z,16.00
2019-03-01T06:59:07.902Z,16.80
2019-03-01T07:02:11.371Z,16.42
2019-03-01T07:05:04.509Z,16.62
2019-03-01T07:08:00.224Z,17.05
2019-03-01T07:10:57.785Z,16.17
2019-03-01T07:13:53.998Z,16.02
2019-03-01T07:16:49.643Z,16.60
2019-03-01T07:19:46.341Z,17.10
2019-03-01T07:22:46.696Z,18.50
2019-03-01T07:25:46.145Z,16.75
2019-03-01T07:28:45.219Z,17.23
2019-03-01T07:31:41.250Z,16.35
2019-03-01T07:34:37.560Z,16.27
2019-03-01T07:37:33.266Z,15.68
2019-03-01T07:40:31.395Z,17.55
2019-03-01T07:43:28.139Z,15.88
2019-03-01T07:46:24.157Z,16.00
2019-03-01T07:49:19.230Z,15.75
2019-03-01T07:52:15.505Z,16.00
2019-03-01T07:55:13.578Z,16.10
2019-03-01T07:58:10.445Z,16.52
2019-03-01T08:01:05.827Z,16.42
2019-03-01T08:04:23.778Z,15.98
2019-03-01T08:08:07.664Z,18.48
2019-03-01T08:11:04.637Z,17.00
2019-03-01T08:14:06.324Z,15.72
2019-03-01T08:17:01.724Z,15.98
2019-03-01T08:19:58.737Z,15.78
2019-03-01T08:22:56.846Z,15.98
2019-03-01T08:25:55.444Z,16.97
2019-03-01T08:28:48.550Z,16.70
2019-03-01T08:31:44.118Z,16.20
2019-03-01T08:34:39.533Z,17.85
2019-03-01T08:37:34.837Z,16.75
2019-03-01T08:40:30.729Z,16.82
2019-03-01T08:43:26.312Z,17.45
2019-03-01T08:46:21.550Z,17.02
2019-03-01T08:49:19.205Z,16.55
2019-03-01T08:52:18.206Z,15.88
2019-03-01T08:55:17.665Z,16.15
2019-03-01T08:58:19.057Z,16.40
2019-03-01T09:01:15.681Z,16.77
2019-03-01T09:04:18.093Z,15.98
2019-03-01T09:07:12.218Z,17.02
2019-03-01T09:10:10.533Z,17.00
2019-03-01T09:13:07.705Z,16.87
2019-03-01T09:16:05.648Z,17.27
2019-03-01T09:19:05.777Z,17.65
2019-03-01T09:22:03.265Z,17.05
2019-03-01T09:25:14.786Z,23.47
2019-03-01T09:28:19.918Z,17.62
2019-03-01T09:31:30.341Z,19.25
2019-03-01T09:34:28.682Z,20.30
2019-03-01T09:37:29.726Z,17.87
2019-03-01T09:40:25.586Z,17.23
2019-03-01T09:43:27.877Z,16.00
2019-03-01T09:46:28.199Z,16.97
2019-03-01T09:49:24.416Z,22.67
2019-03-01T09:52:38.251Z,24.55
2019-03-01T09:56:05.999Z,17.62
2019-03-01T09:59:02.668Z,19.75
2019-03-01T10:01:58.075Z,17.77
2019-03-01T10:05:11.001Z,17.15
2019-03-01T10:08:08.260Z,17.05
2019-03-01T10:11:10.464Z,16.73
2019-03-01T10:14:09.093Z,16.57
2019-03-01T10:17:08.157Z,16.93
2019-03-01T10:20:06.790Z,16.75
2019-03-01T10:23:02.693Z,17.07
2019-03-01T10:26:15.707Z,16.95
2019-03-01T10:29:13.890Z,17.07
2019-03-01T10:32:09.895Z,17.30
2019-03-01T10:35:07.928Z,17.62
2019-03-01T10:38:12.487Z,17.50
2019-03-01T10:41:16.894Z,15.88
2019-03-01T10:44:21.252Z,16.23
2019-03-01T10:47:17.017Z,16.30
2019-03-01T10:50:19.215Z,16.48
2019-03-01T10:53:17.482Z,16.55
2019-03-01T10:56:37.893Z,17.62
2019-03-01T10:59:38.939Z,17.42
2019-03-01T11:02:36.592Z,19.75
2019-03-01T11:05:52.972Z,19.12
2019-03-01T11:09:08.471Z,19.30
2019-03-01T11:12:18.739Z,18.50
2019-03-01T11:15:16.359Z,18.40
2019-03-01T11:18:13.216Z,18.10
2019-03-01T11:21:10.414Z,19.67
2019-03-01T11:24:16.541Z,19.73
2019-03-01T11:27:17.647Z,18.55
2019-03-01T11:30:19.153Z,17.90
2019-03-01T11:33:16.244Z,18.98
2019-03-01T11:36:24.466Z,18.42
2019-03-01T11:39:23.210Z,17.98
2019-03-01T11:42:21.581Z,19.07
2019-03-01T11:45:17.967Z,19.50
2019-03-01T11:48:16.683Z,19.75
2019-03-01T11:51:14.000Z,17.67
2019-03-01T11:54:10.583Z,18.45
2019-03-01T11:57:08.644Z,18.32
2019-03-01T12:00:05.355Z,19.95
2019-03-01T12:03:02.135Z,19.90
2019-03-01T12:05:58.895Z,19.05
2019-03-01T12:08:56.900Z,17.87
2019-03-01T12:11:54.805Z,17.52
2019-03-01T12:14:52.550Z,18.00
2019-03-01T12:17:48.907Z,19.07
2019-03-01T12:20:44.180Z,18.87
2019-03-01T12:23:39.962Z,20.65
2019-03-01T12:26:36.711Z,21.12
2019-03-01T12:29:32.969Z,22.95
2019-03-01T12:32:30.231Z,25.35
2019-03-01T12:35:26.139Z,21.30
2019-03-01T12:38:21.683Z,22.17
2019-03-01T12:41:16.547Z,21.07
2019-03-01T12:44:11.921Z,22.07
2019-03-01T12:47:07.151Z,21.68
2019-03-01T12:50:02.613Z,22.70
2019-03-01T12:52:58.989Z,21.82
2019-03-01T12:55:54.844Z,21.80
2019-03-01T12:58:50.486Z,23.90
2019-03-01T13:01:55.196Z,23.38
2019-03-01T13:04:53.486Z,25.20
2019-03-01T13:07:46.576Z,25.32
2019-03-01T13:10:41.846Z,28.55
2019-03-01T13:13:38.315Z,25.32
2019-03-01T13:16:32.543Z,26.40
2019-03-01T13:19:27.956Z,24.87
2019-03-01T13:22:24.834Z,28.38
2019-03-01T13:25:18.594Z,25.68
2019-03-01T13:28:14.192Z,26.17
2019-03-01T13:31:11.517Z,26.40
2019-03-01T13:34:05.255Z,27.05
2019-03-01T13:37:02.421Z,27.95
2019-03-01T13:39:57.768Z,26.60
2019-03-01T13:42:54.639Z,28.20
2019-03-01T13:45:52.754Z,28.07
2019-03-01T13:48:45.409Z,27.48
2019-03-01T13:51:40.802Z,28.75
2019-03-01T13:54:36.116Z,27.22
2019-03-01T13:57:33.233Z,27.00
2019-03-01T14:00:28.412Z,27.80
2019-03-01T14:03:25.335Z,30.90
2019-03-01T14:06:19.609Z,27.07
2019-03-01T14:09:19.493Z,29.63
2019-03-01T14:12:15.290Z,33.50
2019-03-01T14:15:12.320Z,27.48
2019-03-01T14:18:07.640Z,26.55
2019-03-01T14:21:03.913Z,26.97
2019-03-01T14:23:58.441Z,29.05
2019-03-01T14:26:54.022Z,28.50
2019-03-01T14:29:52.342Z,27.48
2019-03-01T14:32:43.475Z,29.07
2019-03-01T14:35:38.387Z,27.67
2019-03-01T14:38:33.934Z,27.65
2019-03-01T14:41:34.075Z,27.85
2019-03-01T14:44:24.469Z,27.90
2019-03-01T14:47:19.839Z,28.90
2019-03-01T14:50:16.893Z,27.93
2019-03-01T14:53:11.877Z,29.45
2019-03-01T14:56:16.835Z,28.57
2019-03-01T14:59:38.204Z,26.90
2019-03-01T15:03:04.051Z,29.82
2019-03-01T15:05:59.954Z,30.85
2019-03-01T15:08:55.990Z,29.75
2019-03-01T15:11:51.216Z,29.67
2019-03-01T15:14:49.592Z,29.70
2019-03-01T15:17:44.045Z,29.57
2019-03-01T15:20:40.568Z,30.40
2019-03-01T15:23:35.421Z,30.65
2019-03-01T15:26:30.599Z,30.05
2019-03-01T15:29:28.192Z,28.38
2019-03-01T15:32:20.880Z,27.20
2019-03-01T15:35:16.216Z,27.07
2019-03-01T15:38:11.671Z,26.82
2019-03-01T15:41:07.268Z,27.10
2019-03-01T15:44:02.283Z,26.50
2019-03-01T15:46:57.302Z,25.97
2019-03-01T15:49:53.693Z,26.30
2019-03-01T15:52:49.785Z,24.32
2019-03-01T15:55:44.519Z,25.45
2019-03-01T15:58:40.531Z,25.23
2019-03-01T16:01:36.197Z,25.97
2019-03-01T16:04:33.677Z,26.10
2019-03-01T16:07:29.043Z,26.82
2019-03-01T16:10:22.869Z,26.93
2019-03-01T16:13:17.977Z,27.22
2019-03-01T16:16:14.536Z,27.70
2019-03-01T16:19:11.125Z,25.17
2019-03-01T16:22:05.455Z,26.42
2019-03-01T16:25:00.599Z,24.85
2019-03-01T16:27:56.702Z,25.55
2019-03-01T16:30:53.110Z,25.25
2019-03-01T16:33:48.486Z,24.47
2019-03-01T16:36:47.620Z,25.00
2019-03-01T16:39:42.727Z,25.23
2019-03-01T16:42:39.008Z,23.60
2019-03-01T16:45:36.508Z,23.85
2019-03-01T16:48:32.057Z,24.45
2019-03-01T16:51:26.754Z,24.82
2019-03-01T16:54:22.631Z,26.50
2019-03-01T16:57:18.613Z,29.30
2019-03-01T17:00:18.141Z,32.38
2019-03-01T17:03:16.746Z,28.77
2019-03-01T17:06:10.493Z,28.05
2019-03-01T17:09:03.405Z,27.77
2019-03-01T17:11:58.403Z,26.07
2019-03-01T17:14:54.779Z,26.33
2019-03-01T17:17:50.550Z,25.02
2019-03-01T17:20:45.596Z,24.57
2019-03-01T17:23:40.532Z,24.10
2019-03-01T17:26:36.689Z,25.55
2019-03-01T17:29:31.685Z,25.57
2019-03-01T17:32:27.234Z,25.70
2019-03-01T17:35:22.295Z,24.98
2019-03-01T17:38:17.383Z,23.95
2019-03-01T17:41:12.559Z,25.12
2019-03-01T17:44:08.527Z,24.60
2019-03-01T17:47:06.117Z,24.10
2019-03-01T17:49:58.531Z,24.18
2019-03-01T17:52:53.200Z,23.35
2019-03-01T17:55:47.966Z,23.98
2019-03-01T17:58:43.099Z,24.23
2019-03-01T18:01:39.174Z,25.37
2019-03-01T18:04:36.808Z,28.05
2019-03-01T18:07:29.075Z,29.45
2019-03-01T18:10:23.834Z,30.35
2019-03-01T18:13:19.135Z,28.90
2019-03-01T18:16:15.340Z,28.15
2019-03-01T18:19:10.363Z,26.82
2019-03-01T18:22:05.566Z,26.57
2019-03-01T18:25:00.596Z,26.20
2019-03-01T18:27:55.629Z,26.20
2019-03-01T18:30:52.079Z,26.52
2019-03-01T18:33:45.708Z,25.35
2019-03-01T18:36:41.565Z,25.55
2019-03-01T18:39:38.190Z,24.92
2019-03-01T18:42:34.280Z,24.27
2019-03-01T18:45:27.253Z,23.83
2019-03-01T18:48:22.245Z,23.70
2019-03-01T18:51:16.994Z,24.23
2019-03-01T18:54:12.007Z,25.25
2019-03-01T18:57:06.646Z,24.35
2019-03-01T19:00:01.596Z,25.10
2019-03-01T19:02:57.527Z,26.02
2019-03-01T19:05:57.331Z,25.50
2019-03-01T19:08:52.266Z,25.05
2019-03-01T19:11:47.161Z,24.90
2019-03-01T19:14:42.715Z,25.37
2019-03-01T19:17:40.728Z,24.52
2019-03-01T19:20:32.966Z,24.67
2019-03-01T19:23:34.952Z,24.55
2019-03-01T19:26:30.241Z,26.20
2019-03-01T19:29:28.129Z,27.82
2019-03-01T19:32:23.606Z,28.40
2019-03-01T19:35:18.489Z,29.50
2019-03-01T19:38:13.285Z,27.58
2019-03-01T19:41:08.470Z,28.07
2019-03-01T19:44:04.860Z,28.45
2019-03-01T19:47:00.062Z,28.90
2019-03-01T19:49:56.224Z,30.52
2019-03-01T19:52:51.034Z,29.75
2019-03-01T19:55:47.322Z,29.92
2019-03-01T19:58:44.150Z,29.27
2019-03-01T20:01:36.951Z,28.27
2019-03-01T20:04:31.812Z,29.23
2019-03-01T20:07:26.913Z,29.23
2019-03-01T20:10:22.319Z,29.72
2019-03-01T20:13:17.522Z,30.57
2019-03-01T20:16:12.432Z,30.15
2019-03-01T20:19:07.009Z,30.60
2019-03-01T20:22:07.130Z,28.85
2019-03-01T20:25:01.961Z,29.15
2019-03-01T20:27:56.937Z,28.30
2019-03-01T20:30:51.646Z,29.15
2019-03-01T20:33:46.586Z,31.07
2019-03-01T20:36:41.872Z,33.20
2019-03-01T20:39:37.459Z,35.10
2019-03-01T20:42:32.140Z,36.20
2019-03-01T20:45:31.430Z,36.25
2019-03-01T20:48:28.905Z,37.03
2019-03-01T20:51:26.258Z,38.40
2019-03-01T20:54:17.075Z,40.88
2019-03-01T20:57:12.364Z,41.42
2019-03-01T21:00:07.618Z,45.28
2019-03-01T21:03:03.113Z,47.17
2019-03-01T21:05:58.056Z,48.40
2019-03-01T21:08:53.129Z,52.67
2019-03-01T21:11:48.052Z,53.02
2019-03-01T21:14:43.373Z,56.88
2019-03-01T21:17:38.472Z,56.40
2019-03-01T21:20:33.536Z,56.70
2019-03-01T21:23:28.520Z,55.63
2019-03-01T21:26:24.061Z,54.80
2019-03-01T21:29:18.741Z,53.45
2019-03-01T21:32:14.627Z,53.33
2019-03-01T21:35:10.524Z,53.48
2019-03-01T21:38:05.164Z,52.15
2019-03-01T21:41:00.315Z,51.35
2019-03-01T21:43:55.002Z,51.28
2019-03-01T21:46:50.786Z,49.13
2019-03-01T21:49:46.399Z,46.50
2019-03-01T21:52:41.389Z,46.28
2019-03-01T21:55:36.293Z,40.33
2019-03-01T21:58:32.467Z,37.10
2019-03-01T22:01:29.175Z,33.53
2019-03-01T22:04:24.045Z,30.90
2019-03-01T22:07:18.981Z,26.45
2019-03-01T22:10:15.192Z,24.60
2019-03-01T22:13:10.591Z,23.90
2019-03-01T22:16:05.777Z,23.50
2019-03-01T22:19:00.740Z,22.95
2019-03-01T22:21:58.541Z,22.60
2019-03-01T22:24:52.618Z,20.72
2019-03-01T22:27:48.307Z,20.90
2019-03-01T22:30:43.386Z,22.73
2019-03-01T22:33:38.752Z,21.10
2019-03-01T22:36:33.702Z,21.62
2019-03-01T22:39:28.400Z,21.90
2019-03-01T22:42:23.431Z,19.65
2019-03-01T22:45:19.080Z,19.77
2019-03-01T22:48:13.945Z,19.70
2019-03-01T22:51:08.776Z,20.15
2019-03-01T22:54:03.671Z,19.40
2019-03-01T22:56:58.726Z,20.05
2019-03-01T22:59:53.797Z,19.55
2019-03-01T23:02:49.750Z,20.05
2019-03-01T23:05:44.446Z,19.98
2019-03-01T23:08:39.352Z,20.40
2019-03-01T23:11:35.207Z,19.77
2019-03-01T23:14:31.889Z,18.67
2019-03-01T23:17:27.619Z,18.82
2019-03-01T23:20:26.300Z,19.30
2019-03-01T23:23:23.440Z,18.87
2019-03-01T23:26:13.075Z,17.65
2019-03-01T23:29:08.230Z,18.73
2019-03-01T23:32:03.477Z,19.37
2019-03-01T23:34:58.439Z,19.62
2019-03-01T23:37:53.834Z,19.15
2019-03-01T23:40:48.702Z,20.27
2019-03-01T23:43:43.635Z,20.35
2019-03-01T23:46:38.462Z,20.20
2019-03-01T23:49:33.304Z,18.65
2019-03-01T23:52:28.385Z,18.70
2019-03-01T23:55:23.927Z,17.77
2019-03-01T23:58:19.114Z,17.75
